Terminal Aerodrome Forecast
Issued by NWS Portland, OR

Home | Current Version | Previous Version | Text Only | Print | Product List | Glossary On
Versions: 1 2 3 4 5 6 7 8 9 10 11 12 13 14 15 16 17 18 19 20 21 22 23 24 25 26 27 28 29 30 31 32 33 34 35 36 37 38 39 40 41 42
000
FTUS46 KPQR 011733
TAFHIO
TAF
KHIO 011733Z 0118/0218 19003KT 6SM -RA BR BKN050 OVC100
     FM011900 19006KT P6SM -RA BKN020 OVC040
     FM012200 23006G15KT P6SM -SHRA SCT015 BKN020 OVC040
     FM020300 VRB03KT P6SM SCT012 BKN020 OVC040
     FM020600 16004KT 4SM BR BKN007 OVC020=

USA.gov is the U.S. government's official web portal to all federal, state and local government web resources and services.